createdAt,value
2017-03-16T00:00:53.774Z,30.77
2017-03-16T00:01:59.366Z,30.33
2017-03-16T00:03:05.665Z,30.70
2017-03-16T00:04:10.409Z,27.97
2017-03-16T00:05:15.873Z,29.82
2017-03-16T00:06:20.547Z,30.38
2017-03-16T00:07:26.046Z,31.48
2017-03-16T00:08:31.378Z,31.87
2017-03-16T00:09:37.657Z,31.60
2017-03-16T00:10:43.241Z,31.52
2017-03-16T00:11:48.061Z,31.92
2017-03-16T00:12:53.604Z,30.40
2017-03-16T00:13:59.206Z,30.32
2017-03-16T00:15:03.939Z,30.00
2017-03-16T00:16:09.517Z,28.70
2017-03-16T00:17:14.890Z,30.87
2017-03-16T00:18:19.661Z,29.70
2017-03-16T00:19:25.155Z,32.15
2017-03-16T00:20:31.362Z,34.07
2017-03-16T00:21:36.265Z,32.90
2017-03-16T00:22:41.865Z,24.80
2017-03-16T00:23:47.365Z,27.42
2017-03-16T00:24:52.962Z,29.43
2017-03-16T00:25:58.450Z,31.57
2017-03-16T00:27:03.245Z,32.48
2017-03-16T00:28:08.845Z,36.68
2017-03-16T00:29:15.113Z,37.02
2017-03-16T00:30:19.798Z,35.12
2017-03-16T00:31:26.154Z,33.70
2017-03-16T00:32:31.129Z,31.33
2017-03-16T00:33:36.759Z,31.12
2017-03-16T00:34:41.489Z,28.45
2017-03-16T00:35:46.958Z,29.73
2017-03-16T00:36:52.547Z,28.67
2017-03-16T00:37:58.889Z,28.63
2017-03-16T00:39:04.002Z,29.70
2017-03-16T00:40:09.519Z,29.42
2017-03-16T00:41:15.898Z,30.78
2017-03-16T00:42:21.437Z,27.45
2017-03-16T00:43:27.049Z,28.88
2017-03-16T00:44:31.795Z,29.03
2017-03-16T00:45:38.198Z,28.02
2017-03-16T00:46:43.850Z,27.43
2017-03-16T00:47:48.549Z,27.95
2017-03-16T00:48:54.153Z,28.55
2017-03-16T00:50:00.573Z,28.12
2017-03-16T00:51:06.137Z,28.17
2017-03-16T00:52:13.726Z,29.10
2017-03-16T00:53:19.141Z,30.05
2017-03-16T00:54:23.809Z,27.38
2017-03-16T00:55:29.394Z,29.88
2017-03-16T00:56:35.789Z,28.63
2017-03-16T00:57:40.533Z,28.75
2017-03-16T00:58:46.101Z,27.68
2017-03-16T00:59:52.469Z,28.05
2017-03-16T01:00:57.997Z,29.75
2017-03-16T01:02:03.481Z,30.27
2017-03-16T01:03:08.337Z,32.23
2017-03-16T01:04:13.862Z,31.02
2017-03-16T01:05:19.425Z,30.45
2017-03-16T01:06:24.902Z,29.07
2017-03-16T01:07:31.190Z,30.65
2017-03-16T01:08:36.641Z,28.52
2017-03-16T01:09:42.214Z,29.00
2017-03-16T01:10:47.098Z,28.10
2017-03-16T01:11:53.460Z,27.80
2017-03-16T01:12:58.250Z,26.97
2017-03-16T01:14:03.742Z,27.08
2017-03-16T01:15:10.034Z,27.07
2017-03-16T01:16:15.561Z,26.92
2017-03-16T01:17:25.349Z,27.25
2017-03-16T01:18:31.770Z,25.73
2017-03-16T01:19:36.417Z,27.43
2017-03-16T01:20:41.877Z,26.15
2017-03-16T01:21:46.757Z,27.00
2017-03-16T01:22:51.482Z,26.37
2017-03-16T01:23:56.208Z,28.43
2017-03-16T01:25:02.486Z,27.23
2017-03-16T01:26:07.234Z,26.85
2017-03-16T01:27:12.796Z,28.02
2017-03-16T01:28:18.378Z,26.88
2017-03-16T01:29:24.767Z,27.32
2017-03-16T01:30:29.530Z,27.73
2017-03-16T01:31:34.273Z,26.08
2017-03-16T01:32:40.621Z,26.13
2017-03-16T01:33:45.405Z,27.68
2017-03-16T01:34:50.829Z,25.57
2017-03-16T01:35:56.394Z,25.10
2017-03-16T01:37:01.062Z,26.20
2017-03-16T01:38:06.631Z,26.43
2017-03-16T01:39:11.274Z,25.73
2017-03-16T01:40:16.915Z,26.40
2017-03-16T01:41:22.393Z,27.28
2017-03-16T01:42:27.854Z,27.03
2017-03-16T01:43:32.609Z,25.53
2017-03-16T01:44:38.194Z,28.90
2017-03-16T01:45:43.829Z,25.52
2017-03-16T01:46:50.254Z,26.83
2017-03-16T01:47:55.849Z,29.27
2017-03-16T01:49:02.203Z,31.02
2017-03-16T01:50:07.085Z,30.12
2017-03-16T01:51:12.609Z,30.25
2017-03-16T01:52:18.806Z,29.55
2017-03-16T01:53:23.726Z,28.53
2017-03-16T01:54:28.869Z,26.97
2017-03-16T01:55:34.709Z,28.17
2017-03-16T01:56:39.522Z,27.17
2017-03-16T01:57:45.078Z,27.00
2017-03-16T01:58:50.681Z,26.27
2017-03-16T01:59:56.234Z,26.35
2017-03-16T02:01:02.482Z,26.80
2017-03-16T02:02:08.293Z,26.25
2017-03-16T02:03:13.750Z,26.63
2017-03-16T02:04:20.127Z,30.83
2017-03-16T02:05:25.893Z,30.68
2017-03-16T02:06:30.765Z,44.63
2017-03-16T02:07:36.389Z,34.08
2017-03-16T02:08:41.970Z,29.53
2017-03-16T02:09:46.653Z,33.93
2017-03-16T02:10:52.277Z,49.93
2017-03-16T02:11:57.845Z,58.52
2017-03-16T02:13:03.463Z,57.63
2017-03-16T02:14:08.110Z,44.02
2017-03-16T02:15:12.857Z,61.67
2017-03-16T02:16:18.293Z,54.08
2017-03-16T02:17:23.024Z,49.70
2017-03-16T02:18:29.425Z,44.22
2017-03-16T02:19:34.309Z,30.23
2017-03-16T02:20:39.941Z,29.73
2017-03-16T02:21:46.242Z,30.93
2017-03-16T02:22:51.166Z,28.52
2017-03-16T02:23:57.449Z,28.85
2017-03-16T02:25:02.301Z,27.43
2017-03-16T02:26:07.850Z,27.87
2017-03-16T02:27:13.422Z,28.32
2017-03-16T02:28:19.697Z,28.28
2017-03-16T02:29:24.453Z,29.77
2017-03-16T02:30:29.921Z,28.25
2017-03-16T02:31:35.550Z,27.55
2017-03-16T02:32:41.877Z,29.23
2017-03-16T02:33:46.729Z,25.62
2017-03-16T02:34:52.289Z,27.43
2017-03-16T02:35:56.969Z,27.13
2017-03-16T02:37:03.237Z,28.53
2017-03-16T02:38:08.057Z,28.13
2017-03-16T02:39:19.661Z,25.68
2017-03-16T02:40:25.189Z,25.95
2017-03-16T02:41:34.889Z,26.32
2017-03-16T02:42:40.918Z,26.00
2017-03-16T02:43:46.553Z,24.53
2017-03-16T02:44:51.382Z,24.90
2017-03-16T02:45:57.713Z,25.33
2017-03-16T02:47:03.325Z,26.60
2017-03-16T02:48:08.878Z,26.77
2017-03-16T02:49:14.450Z,27.08
2017-03-16T02:50:20.999Z,26.75
2017-03-16T02:51:27.406Z,24.63
2017-03-16T02:52:32.230Z,25.95
2017-03-16T02:53:37.853Z,26.18
2017-03-16T02:54:43.273Z,25.73
2017-03-16T02:55:47.941Z,25.88
2017-03-16T02:56:54.194Z,26.47
2017-03-16T02:57:59.010Z,25.40
2017-03-16T02:59:03.693Z,28.07
2017-03-16T03:00:09.162Z,26.65
2017-03-16T03:01:14.749Z,26.03
2017-03-16T03:02:20.377Z,26.05
2017-03-16T03:03:25.954Z,26.60
2017-03-16T03:04:31.385Z,26.10
2017-03-16T03:05:36.990Z,26.63
2017-03-16T03:06:43.344Z,27.48
2017-03-16T03:07:48.973Z,26.28
2017-03-16T03:08:53.830Z,25.82
2017-03-16T03:09:59.358Z,25.33
2017-03-16T03:11:05.005Z,26.30
2017-03-16T03:12:09.673Z,25.72
2017-03-16T03:13:15.337Z,25.98
2017-03-16T03:14:20.622Z,25.68
2017-03-16T03:15:26.137Z,25.08
2017-03-16T03:16:31.741Z,25.68
2017-03-16T03:17:37.993Z,24.48
2017-03-16T03:18:42.959Z,25.20
2017-03-16T03:19:49.130Z,27.85
2017-03-16T03:20:53.878Z,26.28
2017-03-16T03:21:59.346Z,25.25
2017-03-16T03:23:04.049Z,25.20
2017-03-16T03:24:10.368Z,24.57
2017-03-16T03:25:15.041Z,26.37
2017-03-16T03:26:19.730Z,25.88
2017-03-16T03:27:25.297Z,27.95
2017-03-16T03:28:30.763Z,26.47
2017-03-16T03:29:37.154Z,25.88
2017-03-16T03:30:41.993Z,26.98
2017-03-16T03:31:48.297Z,27.25
2017-03-16T03:32:53.249Z,28.23
2017-03-16T03:33:59.529Z,26.88
2017-03-16T03:35:04.461Z,28.18
2017-03-16T03:36:09.970Z,29.05
2017-03-16T03:37:15.546Z,28.48
2017-03-16T03:38:21.026Z,28.27
2017-03-16T03:39:29.918Z,28.72
2017-03-16T03:40:35.406Z,27.30
2017-03-16T03:41:41.081Z,27.02
2017-03-16T03:42:46.681Z,27.98
2017-03-16T03:43:51.589Z,33.00
2017-03-16T03:44:57.059Z,29.95
2017-03-16T03:46:03.519Z,29.68
2017-03-16T03:47:08.218Z,33.82
2017-03-16T03:48:13.869Z,30.18
2017-03-16T03:49:18.529Z,29.90
2017-03-16T03:50:24.471Z,29.42
2017-03-16T03:51:29.836Z,29.20
2017-03-16T03:52:35.324Z,29.67
2017-03-16T03:53:41.629Z,29.82
2017-03-16T03:54:46.246Z,29.42
2017-03-16T03:55:51.802Z,31.23
2017-03-16T03:56:58.122Z,31.58
2017-03-16T03:58:02.826Z,32.02
2017-03-16T04:00:22.130Z,30.75
2017-03-16T04:01:28.157Z,30.00
2017-03-16T04:02:33.995Z,29.30
2017-03-16T04:03:38.673Z,30.70
2017-03-16T04:04:44.196Z,31.88
2017-03-16T04:05:49.790Z,31.02
2017-03-16T04:06:55.250Z,31.20
2017-03-16T04:08:01.702Z,29.50
2017-03-16T04:09:06.658Z,30.60
2017-03-16T04:10:12.025Z,29.87
2017-03-16T04:11:17.556Z,30.05
2017-03-16T04:12:22.237Z,26.70
2017-03-16T04:13:27.004Z,28.37
2017-03-16T04:14:32.594Z,31.17
2017-03-16T04:15:37.977Z,29.43
2017-03-16T04:16:43.478Z,29.27
2017-03-16T04:17:49.032Z,29.95
2017-03-16T04:18:55.249Z,29.82
2017-03-16T04:20:00.021Z,28.62
2017-03-16T04:21:06.385Z,30.43
2017-03-16T04:22:11.338Z,28.10
2017-03-16T04:23:16.863Z,27.48
2017-03-16T04:24:23.141Z,27.55
2017-03-16T04:25:28.105Z,27.68
2017-03-16T04:26:32.874Z,28.85
2017-03-16T04:27:38.289Z,28.18
2017-03-16T04:28:43.930Z,28.50
2017-03-16T04:29:49.537Z,28.82
2017-03-16T04:30:54.906Z,28.68
2017-03-16T04:32:00.533Z,30.87
2017-03-16T04:33:06.210Z,28.82
2017-03-16T04:34:12.529Z,29.25
2017-03-16T04:35:17.301Z,26.75
2017-03-16T04:36:22.794Z,29.78
2017-03-16T04:37:28.996Z,27.70
2017-03-16T04:38:33.877Z,27.32
2017-03-16T04:39:39.461Z,27.13
2017-03-16T04:40:45.033Z,29.08
2017-03-16T04:41:49.775Z,25.78
2017-03-16T04:42:56.084Z,27.55
2017-03-16T04:44:00.915Z,26.98
2017-03-16T04:45:06.678Z,26.15
2017-03-16T04:46:12.093Z,27.90
2017-03-16T04:47:17.646Z,28.68
2017-03-16T04:48:23.189Z,29.25
2017-03-16T04:49:28.689Z,31.68
2017-03-16T04:50:34.291Z,30.97
2017-03-16T04:51:40.518Z,30.37
2017-03-16T04:52:45.298Z,27.47
2017-03-16T04:53:50.798Z,28.82
2017-03-16T04:54:56.421Z,28.63
2017-03-16T04:56:01.985Z,26.92
2017-03-16T04:57:07.618Z,28.57
2017-03-16T04:58:13.945Z,30.88
2017-03-16T04:59:18.750Z,28.78
2017-03-16T05:00:24.186Z,26.23
2017-03-16T05:01:30.565Z,28.28
2017-03-16T05:02:35.338Z,25.32
2017-03-16T05:03:40.741Z,28.08
2017-03-16T05:04:46.987Z,26.53
2017-03-16T05:05:51.901Z,27.87
2017-03-16T05:06:58.253Z,26.42
2017-03-16T05:08:03.060Z,25.95
2017-03-16T05:09:08.620Z,25.30
2017-03-16T05:10:13.394Z,25.42
2017-03-16T05:11:18.994Z,29.03
2017-03-16T05:12:24.453Z,28.25
2017-03-16T05:13:29.178Z,27.38
2017-03-16T05:14:35.360Z,26.27
2017-03-16T05:15:40.985Z,26.40
2017-03-16T05:16:46.658Z,27.20
2017-03-16T05:17:51.533Z,27.27
2017-03-16T05:18:58.658Z,41.12
2017-03-16T05:20:03.494Z,46.20
2017-03-16T05:21:08.993Z,32.38
2017-03-16T05:22:14.462Z,32.32
2017-03-16T05:23:20.002Z,30.78
2017-03-16T05:24:25.014Z,29.77
2017-03-16T05:25:30.462Z,28.42
2017-03-16T05:26:35.970Z,26.98
2017-03-16T05:27:41.534Z,29.28
2017-03-16T05:28:47.814Z,26.47
2017-03-16T05:29:52.857Z,26.65
2017-03-16T05:30:58.395Z,28.22
2017-03-16T05:32:07.089Z,27.18
2017-03-16T05:33:13.101Z,29.23
2017-03-16T05:34:18.678Z,28.28
2017-03-16T05:35:25.674Z,31.18
2017-03-16T05:36:31.017Z,33.22
2017-03-16T05:37:37.263Z,33.82
2017-03-16T05:38:42.807Z,32.37
2017-03-16T05:39:48.337Z,29.67
2017-03-16T05:40:53.962Z,28.27
2017-03-16T05:41:58.740Z,32.37
2017-03-16T05:43:04.861Z,29.68
2017-03-16T05:44:09.732Z,28.50
2017-03-16T05:45:16.046Z,30.47
2017-03-16T05:46:20.878Z,27.85
2017-03-16T05:47:27.109Z,31.48
2017-03-16T05:48:31.881Z,30.77
2017-03-16T05:49:38.091Z,28.00
2017-03-16T05:50:42.959Z,26.63
2017-03-16T05:51:49.225Z,28.38
2017-03-16T05:52:54.826Z,27.13
2017-03-16T05:54:00.313Z,28.03
2017-03-16T05:55:06.685Z,30.17
2017-03-16T05:56:11.614Z,28.23
2017-03-16T05:57:17.257Z,26.45
2017-03-16T05:58:24.226Z,27.03
2017-03-16T05:59:29.886Z,26.93
2017-03-16T06:00:35.646Z,25.90
2017-03-16T06:01:41.113Z,27.98
2017-03-16T06:02:45.882Z,30.58
2017-03-16T06:03:51.427Z,29.48
2017-03-16T06:04:57.686Z,31.92
2017-03-16T06:06:02.616Z,29.30
2017-03-16T06:07:08.085Z,29.05
2017-03-16T06:08:12.909Z,27.50
2017-03-16T06:09:19.367Z,28.12
2017-03-16T06:10:24.658Z,28.88
2017-03-16T06:11:30.024Z,27.33
2017-03-16T06:12:41.226Z,30.18
2017-03-16T06:13:46.764Z,31.17
2017-03-16T06:14:52.290Z,31.65
2017-03-16T06:15:58.661Z,30.78
2017-03-16T06:17:04.209Z,30.28
2017-03-16T06:18:09.707Z,29.08
2017-03-16T06:19:14.614Z,29.10
2017-03-16T06:20:20.212Z,28.65
2017-03-16T06:21:25.681Z,27.60
2017-03-16T06:22:30.365Z,27.78
2017-03-16T06:23:35.978Z,29.57
2017-03-16T06:24:41.553Z,27.68
2017-03-16T06:25:47.092Z,30.27
2017-03-16T06:26:51.755Z,27.08
2017-03-16T06:27:57.437Z,29.77
2017-03-16T06:29:02.930Z,29.20
2017-03-16T06:30:08.512Z,27.92
2017-03-16T06:31:14.794Z,30.38
2017-03-16T06:32:19.573Z,26.63
2017-03-16T06:33:25.188Z,28.43
2017-03-16T06:34:30.617Z,28.50
2017-03-16T06:35:36.837Z,28.20
2017-03-16T06:36:42.264Z,27.08
2017-03-16T06:37:47.347Z,26.87
2017-03-16T06:38:52.899Z,28.40
2017-03-16T06:39:58.528Z,27.62
2017-03-16T06:41:04.972Z,27.07
2017-03-16T06:42:10.469Z,27.58
2017-03-16T06:43:15.354Z,31.62
2017-03-16T06:44:21.041Z,29.10
2017-03-16T06:45:27.397Z,28.85
2017-03-16T06:46:32.390Z,27.18
2017-03-16T06:47:38.948Z,24.72
2017-03-16T06:48:44.533Z,24.97
2017-03-16T06:49:50.760Z,26.27
2017-03-16T06:50:56.378Z,25.47
2017-03-16T06:52:01.901Z,25.07
2017-03-16T06:53:07.419Z,23.78
2017-03-16T06:54:12.187Z,24.68
2017-03-16T06:55:17.680Z,24.10
2017-03-16T06:56:23.370Z,24.28
2017-03-16T06:57:28.997Z,23.78
2017-03-16T06:58:37.717Z,24.82
2017-03-16T06:59:44.061Z,24.72
2017-03-16T07:00:48.933Z,24.42
2017-03-16T07:01:54.530Z,24.00
2017-03-16T07:03:00.970Z,23.48
2017-03-16T07:04:05.988Z,25.18
2017-03-16T07:05:12.389Z,26.15
2017-03-16T07:06:18.045Z,24.02
2017-03-16T07:07:22.893Z,23.63
2017-03-16T07:08:28.490Z,23.52
2017-03-16T07:09:33.949Z,23.50
2017-03-16T07:10:38.596Z,23.80
2017-03-16T07:11:45.126Z,24.57
2017-03-16T07:12:49.926Z,26.53
2017-03-16T07:13:56.320Z,26.27
2017-03-16T07:15:01.838Z,27.12
2017-03-16T07:16:06.701Z,27.15
2017-03-16T07:17:12.953Z,27.17
2017-03-16T07:18:18.417Z,25.63
2017-03-16T07:19:25.065Z,25.88
2017-03-16T07:20:30.628Z,28.75
2017-03-16T07:21:36.405Z,27.45
2017-03-16T07:22:41.080Z,29.00
2017-03-16T07:23:47.354Z,29.27
2017-03-16T07:24:52.155Z,26.47
2017-03-16T07:25:57.685Z,26.35
2017-03-16T07:27:03.216Z,26.63
2017-03-16T07:28:08.670Z,28.30
2017-03-16T07:29:16.314Z,27.72
2017-03-16T07:30:22.789Z,28.38
2017-03-16T07:31:27.585Z,29.20
2017-03-16T07:32:33.226Z,32.35
2017-03-16T07:33:38.919Z,31.60
2017-03-16T07:34:44.389Z,30.50
2017-03-16T07:35:50.809Z,30.30
2017-03-16T07:37:01.037Z,27.65
2017-03-16T07:38:07.093Z,26.63
2017-03-16T07:39:25.713Z,27.10
2017-03-16T07:40:30.527Z,28.50
2017-03-16T07:41:36.953Z,28.18
2017-03-16T07:42:42.617Z,28.12
2017-03-16T07:43:48.145Z,28.13
2017-03-16T07:44:53.042Z,26.67
2017-03-16T07:45:57.829Z,27.40
2017-03-16T07:47:03.809Z,25.45
2017-03-16T07:48:08.934Z,28.42
2017-03-16T07:49:13.641Z,27.85
2017-03-16T07:50:19.351Z,26.25
2017-03-16T07:51:25.690Z,26.53
2017-03-16T07:52:30.501Z,26.67
2017-03-16T07:53:36.774Z,28.95
2017-03-16T07:54:42.455Z,28.50
2017-03-16T07:55:48.089Z,25.78
2017-03-16T07:56:52.924Z,25.58
2017-03-16T07:57:57.666Z,24.73
2017-03-16T07:59:03.306Z,26.82
2017-03-16T08:00:08.625Z,24.80
2017-03-16T08:01:13.462Z,26.45
2017-03-16T08:02:23.057Z,24.40
2017-03-16T08:03:29.414Z,23.27
2017-03-16T08:04:35.348Z,23.67
2017-03-16T08:05:42.359Z,22.47
2017-03-16T08:06:47.712Z,22.88
2017-03-16T08:07:53.698Z,23.38
2017-03-16T08:08:59.085Z,22.03
2017-03-16T08:10:06.072Z,22.48
2017-03-16T08:11:11.251Z,21.95
2017-03-16T08:12:17.321Z,22.37
2017-03-16T08:13:22.493Z,22.75
2017-03-16T08:14:28.865Z,21.08
2017-03-16T08:15:33.740Z,22.32
2017-03-16T08:16:40.102Z,21.78
2017-03-16T08:17:44.832Z,21.50
2017-03-16T08:18:51.190Z,22.08
2017-03-16T08:19:56.837Z,22.62
2017-03-16T08:21:01.694Z,21.83
2017-03-16T08:22:07.176Z,20.63
2017-03-16T08:23:12.768Z,22.17
2017-03-16T08:24:19.185Z,23.07
2017-03-16T08:25:24.013Z,21.13
2017-03-16T08:26:29.573Z,20.20
2017-03-16T08:27:35.120Z,22.07
2017-03-16T08:28:41.480Z,20.75
2017-03-16T08:29:48.145Z,20.62
2017-03-16T08:30:59.605Z,20.72
2017-03-16T08:32:04.473Z,21.15
2017-03-16T08:33:09.911Z,21.45
2017-03-16T08:34:15.450Z,21.08
2017-03-16T08:35:20.137Z,22.25
2017-03-16T08:36:25.569Z,22.68
2017-03-16T08:37:31.805Z,22.33
2017-03-16T08:38:36.637Z,21.05
2017-03-16T08:39:42.788Z,21.03
2017-03-16T08:40:47.578Z,21.07
2017-03-16T08:41:53.133Z,20.77
2017-03-16T08:42:59.981Z,22.50
2017-03-16T08:44:05.138Z,21.02
2017-03-16T08:45:11.517Z,21.15
2017-03-16T08:46:17.142Z,21.57
2017-03-16T08:47:22.857Z,22.18
2017-03-16T08:48:28.450Z,21.30
2017-03-16T08:49:34.830Z,19.93
2017-03-16T08:50:40.246Z,22.27
2017-03-16T08:51:46.824Z,20.97
2017-03-16T08:52:51.804Z,20.20
2017-03-16T08:53:57.217Z,21.13
2017-03-16T08:55:03.622Z,20.00
2017-03-16T08:56:09.226Z,21.58
2017-03-16T08:57:13.866Z,22.47
2017-03-16T08:58:20.856Z,22.75
2017-03-16T08:59:26.918Z,21.10
2017-03-16T09:00:31.709Z,20.52
2017-03-16T09:01:37.271Z,21.15
2017-03-16T09:02:42.894Z,21.57
2017-03-16T09:03:49.241Z,21.95
2017-03-16T09:04:54.005Z,22.78
2017-03-16T09:06:00.247Z,22.55
2017-03-16T09:07:05.366Z,23.83
2017-03-16T09:08:10.886Z,22.97
2017-03-16T09:09:16.362Z,21.93
2017-03-16T09:10:21.949Z,24.05
2017-03-16T09:11:26.646Z,23.28
2017-03-16T09:12:31.394Z,22.45
2017-03-16T09:13:36.951Z,23.77
2017-03-16T09:14:42.389Z,23.35
2017-03-16T09:15:51.223Z,24.65
2017-03-16T09:16:56.717Z,24.42
2017-03-16T09:18:03.114Z,22.70
2017-03-16T09:19:08.625Z,23.40
2017-03-16T09:20:15.664Z,24.52
2017-03-16T09:21:20.470Z,24.15
2017-03-16T09:22:25.977Z,23.42
2017-03-16T09:23:30.639Z,24.28
2017-03-16T09:24:37.069Z,25.15
2017-03-16T09:25:41.798Z,23.37
2017-03-16T09:26:47.292Z,24.70
2017-03-16T09:27:52.947Z,24.25
2017-03-16T09:28:58.494Z,27.17
2017-03-16T09:30:03.986Z,24.78
2017-03-16T09:31:09.473Z,26.18
2017-03-16T09:32:14.101Z,24.98
2017-03-16T09:33:19.695Z,23.77
2017-03-16T09:34:25.125Z,23.82
2017-03-16T09:35:30.857Z,24.97
2017-03-16T09:36:36.510Z,24.30
2017-03-16T09:37:43.536Z,24.62
2017-03-16T09:38:48.767Z,24.25
2017-03-16T09:39:54.357Z,24.70
2017-03-16T09:40:59.973Z,26.00
2017-03-16T09:42:04.745Z,27.00
2017-03-16T09:43:10.142Z,26.40
2017-03-16T09:44:14.837Z,24.47
2017-03-16T09:45:19.677Z,24.70
2017-03-16T09:46:25.184Z,24.80
2017-03-16T09:47:32.430Z,25.98
2017-03-16T09:48:38.005Z,26.63
2017-03-16T09:49:42.821Z,25.13
2017-03-16T09:50:47.621Z,25.98
2017-03-16T09:51:53.446Z,25.13
2017-03-16T09:52:58.700Z,26.83
2017-03-16T09:54:04.082Z,27.17
2017-03-16T09:55:10.481Z,25.63
2017-03-16T09:56:16.037Z,25.20
2017-03-16T09:57:20.994Z,24.72
2017-03-16T09:58:27.973Z,24.55
2017-03-16T09:59:34.157Z,25.35
2017-03-16T10:00:38.872Z,25.82
2017-03-16T10:01:44.545Z,26.55
2017-03-16T10:02:50.013Z,26.35
2017-03-16T10:03:55.799Z,25.02
2017-03-16T10:05:01.151Z,25.73
2017-03-16T10:06:06.275Z,26.23
2017-03-16T10:07:11.361Z,24.78
2017-03-16T10:08:16.951Z,27.50
2017-03-16T10:09:23.287Z,27.83
2017-03-16T10:10:28.977Z,26.95
2017-03-16T10:11:34.349Z,25.73
2017-03-16T10:12:39.986Z,27.63
2017-03-16T10:13:45.510Z,27.27
2017-03-16T10:14:51.073Z,25.38
2017-03-16T10:15:56.679Z,27.82
2017-03-16T10:17:02.116Z,27.52
2017-03-16T10:18:07.606Z,25.83
2017-03-16T10:19:14.102Z,27.10
2017-03-16T10:20:20.489Z,27.35
2017-03-16T10:21:26.078Z,27.08
2017-03-16T10:22:30.878Z,25.80
2017-03-16T10:23:37.861Z,25.72
2017-03-16T10:24:42.950Z,27.38
2017-03-16T10:25:48.610Z,27.07
2017-03-16T10:26:54.210Z,28.50
2017-03-16T10:27:59.709Z,25.78
2017-03-16T10:29:05.230Z,25.85
2017-03-16T10:30:10.842Z,25.30
2017-03-16T10:31:16.366Z,26.07
2017-03-16T10:32:21.857Z,28.25
2017-03-16T10:33:27.517Z,26.52
2017-03-16T10:34:33.129Z,26.30
2017-03-16T10:35:39.363Z,27.68
2017-03-16T10:36:45.321Z,27.87
2017-03-16T10:37:51.401Z,27.18
2017-03-16T10:38:56.086Z,24.82
2017-03-16T10:40:01.703Z,26.72
2017-03-16T10:41:07.266Z,29.13
2017-03-16T10:42:12.687Z,27.55
2017-03-16T10:43:18.810Z,27.67
2017-03-16T10:44:23.773Z,27.47
2017-03-16T10:45:28.553Z,26.60
2017-03-16T10:46:34.124Z,26.18
2017-03-16T10:47:40.607Z,26.93
2017-03-16T10:48:46.264Z,28.85
2017-03-16T10:49:51.849Z,27.38
2017-03-16T10:50:57.349Z,26.45
2017-03-16T10:52:02.213Z,28.35
2017-03-16T10:53:07.968Z,29.38
2017-03-16T10:54:13.985Z,26.63
2017-03-16T10:55:19.254Z,26.85
2017-03-16T10:56:25.591Z,27.07
2017-03-16T10:57:32.030Z,27.57
2017-03-16T10:58:37.711Z,29.30
2017-03-16T10:59:44.005Z,28.28
2017-03-16T11:00:48.935Z,28.82
2017-03-16T11:01:53.713Z,28.57
2017-03-16T11:02:59.237Z,28.17
2017-03-16T11:04:06.719Z,25.20
2017-03-16T11:05:12.905Z,28.10
2017-03-16T11:06:17.693Z,29.63
2017-03-16T11:07:23.468Z,28.82
2017-03-16T11:08:28.950Z,27.07
2017-03-16T11:09:35.241Z,28.68
2017-03-16T11:10:39.913Z,28.93
2017-03-16T11:11:45.478Z,29.18
2017-03-16T11:12:51.866Z,28.83
2017-03-16T11:13:56.735Z,29.83
2017-03-16T11:15:02.409Z,30.48
2017-03-16T11:16:08.746Z,30.15
2017-03-16T11:17:14.402Z,31.25
2017-03-16T11:18:22.398Z,30.43
2017-03-16T11:19:27.560Z,31.00
2017-03-16T11:20:33.847Z,32.23
2017-03-16T11:21:39.426Z,33.72
2017-03-16T11:22:44.992Z,30.95
2017-03-16T11:23:49.769Z,32.87
2017-03-16T11:24:55.369Z,31.00
2017-03-16T11:26:01.782Z,30.30
2017-03-16T11:27:06.503Z,33.25
2017-03-16T11:28:12.730Z,29.12
2017-03-16T11:29:17.498Z,30.67
2017-03-16T11:30:23.869Z,31.05
2017-03-16T11:31:28.854Z,33.70
2017-03-16T11:32:35.830Z,31.62
2017-03-16T11:33:41.818Z,32.72
2017-03-16T11:34:47.509Z,33.67
2017-03-16T11:35:53.782Z,31.30
2017-03-16T11:36:59.006Z,33.07
2017-03-16T11:38:04.141Z,30.58
2017-03-16T11:39:09.747Z,33.80
2017-03-16T11:40:16.130Z,34.58
2017-03-16T11:41:20.877Z,31.82
2017-03-16T11:42:26.487Z,33.18
2017-03-16T11:43:32.014Z,33.72
2017-03-16T11:44:37.469Z,31.05
2017-03-16T11:45:43.114Z,30.75
2017-03-16T11:46:48.713Z,31.50
2017-03-16T11:47:55.842Z,31.58
2017-03-16T11:49:00.693Z,29.73
2017-03-16T11:50:06.189Z,31.13
2017-03-16T11:51:11.690Z,35.08
2017-03-16T11:52:16.540Z,33.20
2017-03-16T11:53:22.081Z,31.73
2017-03-16T11:54:27.538Z,34.00
2017-03-16T11:55:33.166Z,32.87
2017-03-16T11:56:38.671Z,33.00
2017-03-16T11:57:44.073Z,29.65
2017-03-16T11:58:50.373Z,31.98
2017-03-16T11:59:56.169Z,32.20
2017-03-16T12:01:01.166Z,32.43
2017-03-16T12:02:06.462Z,30.13
2017-03-16T12:03:12.015Z,32.98
2017-03-16T12:04:17.515Z,30.25
2017-03-16T12:05:22.217Z,31.43
2017-03-16T12:06:26.945Z,31.32
2017-03-16T12:07:35.576Z,29.75
2017-03-16T12:08:41.855Z,30.45
2017-03-16T12:09:47.581Z,32.48
2017-03-16T12:10:52.285Z,32.10
2017-03-16T12:11:58.205Z,29.97
2017-03-16T12:13:03.501Z,32.87
2017-03-16T12:14:09.141Z,29.80
2017-03-16T12:15:13.841Z,30.58
2017-03-16T12:16:20.681Z,30.83
2017-03-16T12:17:25.853Z,29.83
2017-03-16T12:18:32.165Z,30.55
2017-03-16T12:19:36.981Z,30.63
2017-03-16T12:20:44.121Z,32.07
2017-03-16T12:21:48.905Z,32.18
2017-03-16T12:22:54.385Z,28.80
2017-03-16T12:23:59.971Z,32.13
2017-03-16T12:25:05.861Z,31.70
2017-03-16T12:26:11.041Z,31.03
2017-03-16T12:27:16.609Z,30.15
2017-03-16T12:28:21.386Z,30.98
2017-03-16T12:29:27.014Z,30.45
2017-03-16T12:30:35.341Z,30.27
2017-03-16T12:31:41.029Z,31.98
2017-03-16T12:32:46.638Z,31.95
2017-03-16T12:33:53.241Z,31.43
2017-03-16T12:34:58.725Z,31.55
2017-03-16T12:36:04.970Z,31.95
2017-03-16T12:37:09.922Z,31.52
2017-03-16T12:38:16.266Z,31.75
2017-03-16T12:39:21.155Z,33.00
2017-03-16T12:40:27.233Z,29.88
2017-03-16T12:41:32.830Z,30.83
2017-03-16T12:42:37.643Z,30.45
2017-03-16T12:43:43.221Z,30.98
2017-03-16T12:44:49.537Z,32.02
2017-03-16T12:45:54.325Z,31.83
2017-03-16T12:46:59.825Z,33.63
2017-03-16T12:48:07.101Z,32.33
2017-03-16T12:49:13.393Z,31.17
2017-03-16T12:50:19.186Z,31.50
2017-03-16T12:51:24.750Z,31.60
2017-03-16T12:52:29.573Z,34.93
2017-03-16T12:53:35.125Z,34.55
2017-03-16T12:54:40.613Z,30.92
2017-03-16T12:55:46.198Z,30.58
2017-03-16T12:56:51.646Z,30.68
2017-03-16T12:57:59.076Z,32.42
2017-03-16T12:59:04.049Z,29.90
2017-03-16T13:00:09.530Z,31.80
2017-03-16T13:01:15.149Z,32.10
2017-03-16T13:02:21.897Z,30.95
2017-03-16T13:03:27.269Z,32.58
2017-03-16T13:04:32.782Z,32.58
2017-03-16T13:05:38.270Z,29.83
2017-03-16T13:06:44.626Z,31.78
2017-03-16T13:07:50.438Z,31.22
2017-03-16T13:08:56.061Z,33.03
2017-03-16T13:10:01.961Z,32.10
2017-03-16T13:11:07.121Z,32.50
2017-03-16T13:12:12.593Z,29.32
2017-03-16T13:13:18.169Z,29.78
2017-03-16T13:14:23.641Z,30.13
2017-03-16T13:15:29.247Z,32.57
2017-03-16T13:16:35.089Z,31.43
2017-03-16T13:17:41.113Z,31.63
2017-03-16T13:18:46.189Z,29.97
2017-03-16T13:19:51.618Z,31.43
2017-03-16T13:20:58.773Z,31.42
2017-03-16T13:22:03.585Z,31.72
2017-03-16T13:23:10.006Z,30.20
2017-03-16T13:24:15.510Z,29.68
2017-03-16T13:25:21.299Z,31.87
2017-03-16T13:26:26.661Z,31.35
2017-03-16T13:27:32.249Z,31.25
2017-03-16T13:28:37.833Z,26.58
2017-03-16T13:29:43.469Z,30.98
2017-03-16T13:30:48.953Z,31.40
2017-03-16T13:31:55.277Z,29.57
2017-03-16T13:33:00.019Z,31.13
2017-03-16T13:34:05.497Z,32.12
2017-03-16T13:35:10.334Z,29.63
2017-03-16T13:36:15.955Z,32.35
2017-03-16T13:37:21.953Z,38.43
2017-03-16T13:38:27.206Z,31.02
2017-03-16T13:39:32.501Z,31.20
2017-03-16T13:40:38.875Z,31.70
2017-03-16T13:41:43.590Z,31.00
2017-03-16T13:42:49.070Z,33.20
2017-03-16T13:43:55.381Z,30.20
2017-03-16T13:45:00.715Z,31.20
2017-03-16T13:46:05.626Z,30.62
2017-03-16T13:47:10.378Z,32.00
2017-03-16T13:48:17.578Z,30.73
2017-03-16T13:49:22.390Z,30.33
2017-03-16T13:50:27.869Z,30.32
2017-03-16T13:51:34.249Z,31.37
2017-03-16T13:52:39.877Z,29.93
2017-03-16T13:53:44.722Z,29.08
2017-03-16T13:54:50.225Z,31.77
2017-03-16T13:55:56.181Z,29.55
2017-03-16T13:57:02.654Z,29.67
2017-03-16T13:58:08.370Z,29.67
2017-03-16T13:59:14.176Z,30.37
2017-03-16T14:00:18.894Z,27.85
2017-03-16T14:01:24.825Z,28.90
2017-03-16T14:02:29.641Z,29.58
2017-03-16T14:03:35.313Z,28.95
2017-03-16T14:04:40.894Z,30.48
2017-03-16T14:05:46.689Z,28.27
2017-03-16T14:06:53.086Z,30.98